createdAt,value
2018-10-17T00:01:42.293Z,17.20
2018-10-17T00:04:10.786Z,18.10
2018-10-17T00:06:39.335Z,19.97
2018-10-17T00:09:09.366Z,19.73
2018-10-17T00:11:38.230Z,19.37
2018-10-17T00:14:07.098Z,18.87
2018-10-17T00:16:35.605Z,16.87
2018-10-17T00:19:09.601Z,18.00
2018-10-17T00:21:38.110Z,18.13
2018-10-17T00:24:06.650Z,18.43
2018-10-17T00:26:35.248Z,18.27
2018-10-17T00:29:03.812Z,17.97
2018-10-17T00:31:32.272Z,19.40
2018-10-17T00:34:00.778Z,19.07
2018-10-17T00:36:29.272Z,17.20
2018-10-17T00:38:57.775Z,17.60
2018-10-17T00:41:26.323Z,17.97
2018-10-17T00:43:54.839Z,19.37
2018-10-17T00:46:23.344Z,17.47
2018-10-17T00:48:51.906Z,19.93
2018-10-17T00:51:20.393Z,18.50
2018-10-17T00:53:48.955Z,18.83
2018-10-17T00:56:17.490Z,16.73
2018-10-17T00:58:57.133Z,17.30
2018-10-17T01:01:25.623Z,17.80
2018-10-17T01:03:54.147Z,17.40
2018-10-17T01:06:22.679Z,17.87
2018-10-17T01:08:51.208Z,18.90
2018-10-17T01:11:19.765Z,17.13
2018-10-17T01:13:48.257Z,16.07
2018-10-17T01:16:16.783Z,17.93
2018-10-17T01:18:45.286Z,18.37
2018-10-17T01:21:13.784Z,17.27
2018-10-17T01:23:43.783Z,17.83
2018-10-17T01:26:12.361Z,18.47
2018-10-17T01:28:42.752Z,17.57
2018-10-17T01:31:11.289Z,18.30
2018-10-17T01:33:40.823Z,17.50
2018-10-17T01:36:09.329Z,15.83
2018-10-17T01:38:37.995Z,17.63
2018-10-17T01:41:06.561Z,19.30
2018-10-17T01:43:35.079Z,17.37
2018-10-17T01:46:03.603Z,17.30
2018-10-17T01:48:32.110Z,18.20
2018-10-17T01:51:00.715Z,18.40
2018-10-17T01:53:29.462Z,17.27
2018-10-17T01:55:58.039Z,17.07
2018-10-17T01:58:26.547Z,18.00
2018-10-17T02:00:55.086Z,17.87
2018-10-17T02:03:23.610Z,17.23
2018-10-17T02:05:52.122Z,17.40
2018-10-17T02:08:20.641Z,16.60
2018-10-17T02:10:49.195Z,14.83
2018-10-17T02:13:20.318Z,16.93
2018-10-17T02:15:50.170Z,16.93
2018-10-17T02:18:18.928Z,16.83
2018-10-17T02:20:47.442Z,18.30
2018-10-17T02:23:15.974Z,17.77
2018-10-17T02:25:44.525Z,16.70
2018-10-17T02:28:13.063Z,17.77
2018-10-17T02:30:41.584Z,17.23
2018-10-17T02:33:10.098Z,18.27
2018-10-17T02:35:38.603Z,16.43
2018-10-17T02:38:07.115Z,16.83
2018-10-17T02:40:35.634Z,17.17
2018-10-17T02:43:04.249Z,17.73
2018-10-17T02:45:32.666Z,17.07
2018-10-17T02:48:01.160Z,17.77
2018-10-17T02:50:29.647Z,16.87
2018-10-17T02:52:58.192Z,17.50
2018-10-17T02:55:26.725Z,19.23
2018-10-17T02:57:55.263Z,19.40
2018-10-17T03:00:23.776Z,20.80
2018-10-17T03:02:52.284Z,20.13
2018-10-17T03:05:20.887Z,20.17
2018-10-17T03:07:49.354Z,23.00
2018-10-17T03:10:17.855Z,24.63
2018-10-17T03:12:46.346Z,21.70
2018-10-17T03:15:14.879Z,18.83
2018-10-17T03:17:43.414Z,19.87
2018-10-17T03:20:12.218Z,20.37
2018-10-17T03:22:40.791Z,20.50
2018-10-17T03:25:10.266Z,21.60
2018-10-17T03:27:38.770Z,18.50
2018-10-17T03:30:07.434Z,18.60
2018-10-17T03:32:35.929Z,17.10
2018-10-17T03:35:04.480Z,18.60
2018-10-17T03:37:32.950Z,18.20
2018-10-17T03:40:01.585Z,16.83
2018-10-17T03:42:30.094Z,17.40
2018-10-17T03:44:58.600Z,15.73
2018-10-17T03:47:27.075Z,18.53
2018-10-17T03:49:55.649Z,16.50
2018-10-17T03:52:24.121Z,16.47
2018-10-17T03:54:52.640Z,17.97
2018-10-17T03:57:21.111Z,16.63
2018-10-17T03:59:49.735Z,17.10
2018-10-17T04:02:18.989Z,16.60
2018-10-17T04:04:47.516Z,17.30
2018-10-17T04:07:16.016Z,17.80
2018-10-17T04:09:44.525Z,17.70
2018-10-17T04:12:13.039Z,17.70
2018-10-17T04:14:41.536Z,17.80
2018-10-17T04:17:10.186Z,16.70
2018-10-17T04:19:38.667Z,15.20
2018-10-17T04:22:07.164Z,18.13
2018-10-17T04:24:35.668Z,17.00
2018-10-17T04:27:04.214Z,16.50
2018-10-17T04:29:32.731Z,13.83
2018-10-17T04:34:53.837Z,15.43
2018-10-17T04:37:22.338Z,15.20
2018-10-17T04:39:51.169Z,13.60
2018-10-17T04:42:19.651Z,14.17
2018-10-17T04:44:48.151Z,14.93
2018-10-17T04:47:16.789Z,14.07
2018-10-17T04:49:45.179Z,14.33
2018-10-17T04:52:13.675Z,15.10
2018-10-17T04:54:42.218Z,14.13
2018-10-17T04:57:10.726Z,12.63
2018-10-17T04:59:39.227Z,14.90
2018-10-17T05:02:07.716Z,16.47
2018-10-17T05:04:36.289Z,16.20
2018-10-17T05:07:04.790Z,16.30
2018-10-17T05:09:33.310Z,14.97
2018-10-17T05:12:01.796Z,14.60
2018-10-17T05:14:30.295Z,15.37
2018-10-17T05:19:51.868Z,15.80
2018-10-17T05:22:20.390Z,17.37
2018-10-17T05:24:48.877Z,15.07
2018-10-17T05:27:17.394Z,15.53
2018-10-17T05:29:45.992Z,17.00
2018-10-17T05:32:14.429Z,15.73
2018-10-17T05:34:42.970Z,16.00
2018-10-17T05:37:11.592Z,16.53
2018-10-17T05:39:40.016Z,13.33
2018-10-17T05:42:08.536Z,14.70
2018-10-17T05:44:37.144Z,14.07
2018-10-17T05:47:05.875Z,16.70
2018-10-17T05:49:34.367Z,17.20
2018-10-17T05:52:02.946Z,17.30
2018-10-17T05:54:31.474Z,16.23
2018-10-17T05:56:59.966Z,18.83
2018-10-17T05:59:28.825Z,17.97
2018-10-17T06:01:59.584Z,16.03
2018-10-17T06:04:28.098Z,16.63
2018-10-17T06:06:56.633Z,18.50
2018-10-17T06:09:25.133Z,17.80
2018-10-17T06:11:53.659Z,16.63
2018-10-17T06:14:22.148Z,17.47
2018-10-17T06:16:50.732Z,15.50
2018-10-17T06:19:19.556Z,16.00
2018-10-17T06:21:48.059Z,16.13
2018-10-17T06:24:16.582Z,16.23
2018-10-17T06:26:45.086Z,15.73
2018-10-17T06:29:13.641Z,16.63
2018-10-17T06:31:42.091Z,14.70
2018-10-17T06:34:10.672Z,16.43
2018-10-17T06:36:39.120Z,18.70
2018-10-17T06:39:09.811Z,18.20
2018-10-17T06:41:38.307Z,16.90
2018-10-17T06:44:07.376Z,17.17
2018-10-17T06:46:36.143Z,16.33
2018-10-17T06:49:04.787Z,17.00
2018-10-17T06:51:33.254Z,15.70
2018-10-17T06:54:01.831Z,16.17
2018-10-17T06:56:30.531Z,15.73
2018-10-17T06:58:59.089Z,16.77
2018-10-17T07:01:27.551Z,18.80
2018-10-17T07:03:56.102Z,21.87
2018-10-17T07:06:24.619Z,20.67
2018-10-17T07:08:53.113Z,22.80
2018-10-17T07:11:21.754Z,20.67
2018-10-17T07:13:50.183Z,19.60
2018-10-17T07:16:18.843Z,18.30
2018-10-17T07:18:47.349Z,20.90
2018-10-17T07:21:15.842Z,18.07
2018-10-17T07:23:44.450Z,19.70
2018-10-17T07:26:12.959Z,21.73
2018-10-17T07:28:44.578Z,20.17
2018-10-17T07:31:13.092Z,19.40
2018-10-17T07:33:43.346Z,19.20
2018-10-17T07:36:11.911Z,19.17
2018-10-17T07:38:41.947Z,20.60
2018-10-17T07:41:10.518Z,21.10
2018-10-17T07:43:39.212Z,19.10
2018-10-17T07:46:07.718Z,18.53
2018-10-17T07:48:36.218Z,20.57
2018-10-17T07:51:05.100Z,20.77
2018-10-17T07:53:33.910Z,19.70
2018-10-17T07:56:02.684Z,18.77
2018-10-17T07:58:31.210Z,19.90
2018-10-17T08:00:59.839Z,18.47
2018-10-17T08:03:28.375Z,18.20
2018-10-17T08:05:56.914Z,20.30
2018-10-17T08:08:25.386Z,21.87
2018-10-17T08:10:53.918Z,21.87
2018-10-17T08:13:22.429Z,20.30
2018-10-17T08:15:50.947Z,21.73
2018-10-17T08:18:19.536Z,21.33
2018-10-17T08:20:48.021Z,20.63
2018-10-17T08:23:16.533Z,21.63
2018-10-17T08:25:45.024Z,23.37
2018-10-17T08:28:13.517Z,21.90
2018-10-17T08:30:42.037Z,21.13
2018-10-17T08:33:10.632Z,22.93
2018-10-17T08:35:39.285Z,22.13
2018-10-17T08:38:07.777Z,22.07
2018-10-17T08:40:36.227Z,21.63
2018-10-17T08:43:05.375Z,23.73
2018-10-17T08:45:34.006Z,22.23
2018-10-17T08:48:02.503Z,23.27
2018-10-17T08:50:31.066Z,23.40
2018-10-17T08:52:59.516Z,22.10
2018-10-17T08:55:28.047Z,25.50
2018-10-17T08:57:56.669Z,22.93
2018-10-17T09:00:25.274Z,25.57
2018-10-17T09:02:53.778Z,22.60
2018-10-17T09:05:22.292Z,23.37
2018-10-17T09:07:50.985Z,24.77
2018-10-17T09:10:19.359Z,23.03
2018-10-17T09:12:47.875Z,25.10
2018-10-17T09:15:16.382Z,23.70
2018-10-17T09:17:44.898Z,24.83
2018-10-17T09:20:13.747Z,23.33
2018-10-17T09:22:42.073Z,24.33
2018-10-17T09:25:10.545Z,21.27
2018-10-17T09:27:39.062Z,23.10
2018-10-17T09:30:09.188Z,22.30
2018-10-17T09:32:37.756Z,22.00
2018-10-17T09:35:07.174Z,24.70
2018-10-17T09:37:35.835Z,21.87
2018-10-17T09:40:04.548Z,22.67
2018-10-17T09:42:33.073Z,20.83
2018-10-17T09:45:01.591Z,23.03
2018-10-17T09:47:30.118Z,21.37
2018-10-17T09:49:58.692Z,22.43
2018-10-17T09:52:27.214Z,23.63
2018-10-17T09:54:55.735Z,20.90
2018-10-17T09:57:24.251Z,21.40
2018-10-17T09:59:52.788Z,21.93
2018-10-17T10:02:22.184Z,19.57
2018-10-17T10:04:50.732Z,20.20
2018-10-17T10:07:19.269Z,19.83
2018-10-17T10:09:47.798Z,19.07
2018-10-17T10:12:16.402Z,19.37
2018-10-17T10:14:44.948Z,19.77
2018-10-17T10:17:13.558Z,19.37
2018-10-17T10:19:42.047Z,19.70
2018-10-17T10:22:10.594Z,21.90
2018-10-17T10:24:39.129Z,21.97
2018-10-17T10:27:07.622Z,21.50
2018-10-17T10:29:36.177Z,18.43
2018-10-17T10:32:04.762Z,21.50
2018-10-17T10:34:33.302Z,19.13
2018-10-17T10:37:01.807Z,20.27
2018-10-17T10:39:30.302Z,20.30
2018-10-17T10:41:58.882Z,18.10
2018-10-17T10:44:27.366Z,20.50
2018-10-17T10:46:55.919Z,19.40
2018-10-17T10:49:24.446Z,17.87
2018-10-17T10:51:52.952Z,18.60
2018-10-17T10:54:21.598Z,19.40
2018-10-17T10:56:50.840Z,19.47
2018-10-17T10:59:19.615Z,19.23
2018-10-17T11:01:48.092Z,23.27
2018-10-17T11:04:16.622Z,21.63
2018-10-17T11:06:45.151Z,25.13
2018-10-17T11:09:13.667Z,25.87
2018-10-17T11:11:42.160Z,33.60
2018-10-17T11:14:10.841Z,23.53
2018-10-17T11:16:39.283Z,23.00
2018-10-17T11:19:07.817Z,20.57
2018-10-17T11:21:36.459Z,21.80
2018-10-17T11:24:05.152Z,25.00
2018-10-17T11:26:33.682Z,22.77
2018-10-17T11:29:02.262Z,22.70
2018-10-17T11:31:30.905Z,20.27
2018-10-17T11:33:59.367Z,21.50
2018-10-17T11:36:27.851Z,19.80
2018-10-17T11:38:56.424Z,18.23
2018-10-17T11:41:25.015Z,20.57
2018-10-17T11:43:53.559Z,19.70
2018-10-17T11:46:22.199Z,19.37
2018-10-17T11:48:58.255Z,18.07
2018-10-17T11:51:26.815Z,17.77
2018-10-17T11:53:55.319Z,19.50
2018-10-17T11:56:23.822Z,18.00
2018-10-17T11:58:52.407Z,19.07
2018-10-17T12:01:20.930Z,18.67
2018-10-17T12:03:49.642Z,19.50
2018-10-17T12:06:18.133Z,21.27
2018-10-17T12:08:46.518Z,19.00
2018-10-17T12:11:15.213Z,17.87
2018-10-17T12:13:44.720Z,19.80
2018-10-17T12:16:13.260Z,22.17
2018-10-17T12:18:42.985Z,18.13
2018-10-17T12:21:11.714Z,20.90
2018-10-17T12:23:41.360Z,19.43
2018-10-17T12:26:09.896Z,22.10
2018-10-17T12:28:38.592Z,19.50
2018-10-17T12:31:07.055Z,22.50
2018-10-17T12:33:35.627Z,21.20
2018-10-17T12:36:04.269Z,21.53
2018-10-17T12:38:32.749Z,18.90
2018-10-17T12:41:01.402Z,20.60
2018-10-17T12:43:29.790Z,18.07
2018-10-17T12:45:58.334Z,18.00
2018-10-17T12:48:26.841Z,18.27
2018-10-17T12:50:55.364Z,20.53
2018-10-17T12:53:23.908Z,19.33
2018-10-17T12:55:52.423Z,17.83
2018-10-17T12:58:20.943Z,16.60
2018-10-17T13:00:49.487Z,16.50
2018-10-17T13:03:18.035Z,16.97
2018-10-17T13:05:46.530Z,20.37
2018-10-17T13:08:15.025Z,18.43
2018-10-17T13:10:43.546Z,20.80
2018-10-17T13:13:12.123Z,19.80
2018-10-17T13:15:40.583Z,20.57
2018-10-17T13:18:09.091Z,17.90
2018-10-17T13:20:37.715Z,18.73
2018-10-17T13:23:06.618Z,18.50
2018-10-17T13:25:35.106Z,21.20
2018-10-17T13:28:03.661Z,23.53
2018-10-17T13:30:32.191Z,24.37
2018-10-17T13:33:00.737Z,24.53
2018-10-17T13:35:29.251Z,23.73
2018-10-17T13:37:57.752Z,24.43
2018-10-17T13:40:26.258Z,24.27
2018-10-17T13:42:54.771Z,27.60
2018-10-17T13:45:23.294Z,26.47
2018-10-17T13:47:51.814Z,27.47
2018-10-17T13:50:20.319Z,26.63
2018-10-17T13:52:48.845Z,27.50
2018-10-17T13:55:17.376Z,25.67
2018-10-17T13:57:45.930Z,26.20
2018-10-17T14:00:14.402Z,26.73
2018-10-17T14:02:43.767Z,29.07
2018-10-17T14:05:12.311Z,26.10
2018-10-17T14:07:40.816Z,26.53
2018-10-17T14:10:09.349Z,28.67
2018-10-17T14:12:37.888Z,29.20
2018-10-17T14:15:06.664Z,27.63
2018-10-17T14:17:35.147Z,28.30
2018-10-17T14:20:03.725Z,30.07
2018-10-17T14:22:32.246Z,29.67
2018-10-17T14:25:00.762Z,28.00
2018-10-17T14:27:29.301Z,29.47
2018-10-17T14:29:57.876Z,30.70
2018-10-17T14:32:26.383Z,35.10
2018-10-17T14:34:54.890Z,39.50
2018-10-17T14:37:23.439Z,36.53
2018-10-17T14:39:52.003Z,36.60
2018-10-17T14:42:20.602Z,40.00
2018-10-17T14:44:49.126Z,37.13
2018-10-17T14:47:18.193Z,33.57
2018-10-17T14:49:46.711Z,31.90
2018-10-17T14:52:15.591Z,31.50
2018-10-17T14:54:44.192Z,31.57
2018-10-17T14:57:12.752Z,29.13
2018-10-17T14:59:41.228Z,32.83
2018-10-17T15:02:09.742Z,34.67
2018-10-17T15:04:38.250Z,32.80
2018-10-17T15:07:06.814Z,36.77
2018-10-17T15:09:35.323Z,35.13
2018-10-17T15:12:03.956Z,35.50
2018-10-17T15:14:32.372Z,31.43
2018-10-17T15:17:00.961Z,34.33
2018-10-17T15:19:29.434Z,33.03
2018-10-17T15:21:58.103Z,30.90
2018-10-17T15:24:26.645Z,30.33
2018-10-17T15:26:55.171Z,29.40
2018-10-17T15:29:23.667Z,31.60
2018-10-17T15:31:52.266Z,30.13
2018-10-17T15:34:20.751Z,31.60
2018-10-17T15:36:49.307Z,30.73
2018-10-17T15:39:17.883Z,29.70
2018-10-17T15:41:46.382Z,28.80
2018-10-17T15:44:14.911Z,28.57
2018-10-17T15:46:43.419Z,29.87
2018-10-17T15:49:11.978Z,28.90
2018-10-17T15:51:40.494Z,25.50
2018-10-17T15:54:09.074Z,25.93
2018-10-17T15:56:37.595Z,25.80
2018-10-17T15:59:06.280Z,23.67
2018-10-17T16:01:34.793Z,26.50
2018-10-17T16:04:03.335Z,25.13
2018-10-17T16:06:31.839Z,23.43
2018-10-17T16:09:00.367Z,26.50
2018-10-17T16:11:28.939Z,27.20
2018-10-17T16:13:57.876Z,24.27
2018-10-17T16:16:26.424Z,23.97
2018-10-17T16:18:54.942Z,25.20
2018-10-17T16:21:23.503Z,25.83
2018-10-17T16:23:52.076Z,25.20
2018-10-17T16:29:13.266Z,24.90
2018-10-17T16:31:41.753Z,25.20
2018-10-17T16:34:10.266Z,25.90
2018-10-17T16:36:38.764Z,24.20
2018-10-17T16:39:10.034Z,23.23
2018-10-17T16:41:38.535Z,28.10
2018-10-17T16:44:07.300Z,25.67
2018-10-17T16:46:36.107Z,23.87
2018-10-17T16:49:04.683Z,26.00
2018-10-17T16:51:33.283Z,24.40
2018-10-17T16:54:01.863Z,25.17
2018-10-17T16:56:30.331Z,22.17
2018-10-17T16:58:58.925Z,20.30
2018-10-17T17:01:27.442Z,17.60
2018-10-17T17:03:55.970Z,17.30
2018-10-17T17:06:24.455Z,15.60
2018-10-17T17:08:53.010Z,16.83
2018-10-17T17:11:21.486Z,16.70
2018-10-17T17:13:49.986Z,17.93
2018-10-17T17:16:18.585Z,20.70
2018-10-17T17:18:47.079Z,26.20
2018-10-17T17:21:15.772Z,22.53
2018-10-17T17:23:45.242Z,21.10
2018-10-17T17:26:13.764Z,23.93
2018-10-17T17:28:43.138Z,21.40
2018-10-17T17:31:11.644Z,20.80
2018-10-17T17:33:41.222Z,21.70
2018-10-17T17:36:09.754Z,20.53
2018-10-17T17:38:38.363Z,23.77
2018-10-17T17:41:06.983Z,25.73
2018-10-17T17:43:35.523Z,24.60
2018-10-17T17:46:04.070Z,27.07
2018-10-17T17:48:32.547Z,30.57
2018-10-17T17:51:01.078Z,31.20
2018-10-17T17:53:29.584Z,30.73
2018-10-17T17:55:58.079Z,27.20
2018-10-17T17:58:27.035Z,31.37
2018-10-17T18:00:55.518Z,33.50
2018-10-17T18:03:24.877Z,36.90
2018-10-17T18:05:53.374Z,38.07
2018-10-17T18:08:21.911Z,36.90
2018-10-17T18:10:50.428Z,35.73
2018-10-17T18:13:19.154Z,32.93
2018-10-17T18:15:47.679Z,30.70
2018-10-17T18:18:16.929Z,30.40
2018-10-17T18:20:45.456Z,31.07
2018-10-17T18:23:13.974Z,29.17
2018-10-17T18:25:42.774Z,27.93
2018-10-17T18:28:11.442Z,31.07
2018-10-17T18:30:39.870Z,33.87
2018-10-17T18:33:08.434Z,36.80
2018-10-17T18:35:36.951Z,40.37
2018-10-17T18:38:05.721Z,41.30
2018-10-17T18:40:37.357Z,39.33
2018-10-17T18:43:05.903Z,35.90
2018-10-17T18:45:34.467Z,33.00
2018-10-17T18:48:03.007Z,29.73
2018-10-17T18:50:31.531Z,31.73
2018-10-17T18:53:00.036Z,29.80
2018-10-17T18:55:28.752Z,33.63
2018-10-17T18:57:57.243Z,33.20
2018-10-17T19:00:25.738Z,34.67
2018-10-17T19:02:54.242Z,35.13
2018-10-17T19:05:22.758Z,33.97
2018-10-17T19:07:51.291Z,33.60
2018-10-17T19:10:19.955Z,34.40
2018-10-17T19:12:48.450Z,35.47
2018-10-17T19:15:17.028Z,34.67
2018-10-17T19:17:45.513Z,36.73
2018-10-17T19:20:14.036Z,36.50
2018-10-17T19:22:42.574Z,36.47
2018-10-17T19:25:11.731Z,39.90
2018-10-17T19:27:40.258Z,38.30
2018-10-17T19:30:09.824Z,35.93
2018-10-17T19:32:38.350Z,36.07
2018-10-17T19:35:07.279Z,38.87
2018-10-17T19:37:35.763Z,35.50
2018-10-17T19:40:04.402Z,34.60
2018-10-17T19:42:32.922Z,34.53
2018-10-17T19:45:02.606Z,35.97
2018-10-17T19:47:31.097Z,37.20
2018-10-17T19:49:59.611Z,39.40
2018-10-17T19:52:28.123Z,41.17
2018-10-17T19:54:56.658Z,41.73
2018-10-17T19:57:25.167Z,39.73
2018-10-17T19:59:53.693Z,38.20
2018-10-17T20:02:22.974Z,41.27
2018-10-17T20:04:51.484Z,40.60
2018-10-17T20:07:20.123Z,37.70
2018-10-17T20:09:48.627Z,38.60
2018-10-17T20:12:17.143Z,37.10
2018-10-17T20:14:45.675Z,37.37
2018-10-17T20:17:14.177Z,36.33
2018-10-17T20:19:42.687Z,38.17
2018-10-17T20:22:12.231Z,39.40
2018-10-17T20:24:41.234Z,37.57
2018-10-17T20:27:10.189Z,37.37
2018-10-17T20:29:38.957Z,35.27
2018-10-17T20:32:08.022Z,37.13
2018-10-17T20:34:36.555Z,34.40
2018-10-17T20:37:05.182Z,37.37
2018-10-17T20:39:33.847Z,37.53
2018-10-17T20:42:02.473Z,35.40
2018-10-17T20:44:30.967Z,32.37
2018-10-17T20:46:59.488Z,34.67
2018-10-17T20:49:28.054Z,34.90
2018-10-17T20:51:56.550Z,33.30
2018-10-17T20:54:25.090Z,34.30
2018-10-17T20:56:53.604Z,33.77
2018-10-17T20:59:22.111Z,34.80
2018-10-17T21:01:50.770Z,35.70
2018-10-17T21:04:19.251Z,34.80
2018-10-17T21:06:47.777Z,32.73
2018-10-17T21:09:16.315Z,33.90
2018-10-17T21:11:44.813Z,32.93
2018-10-17T21:14:15.443Z,31.63
2018-10-17T21:16:43.939Z,33.60
2018-10-17T21:19:12.435Z,37.00
2018-10-17T21:21:40.959Z,36.33
2018-10-17T21:24:09.478Z,36.40
2018-10-17T21:26:38.003Z,34.43
2018-10-17T21:29:06.834Z,32.63
2018-10-17T21:31:35.324Z,33.80
2018-10-17T21:34:03.886Z,35.23
2018-10-17T21:36:32.392Z,35.77
2018-10-17T21:39:00.900Z,32.67
2018-10-17T21:41:29.404Z,33.70
2018-10-17T21:43:57.962Z,34.80
2018-10-17T21:46:26.466Z,32.50
2018-10-17T21:48:54.954Z,33.87
2018-10-17T21:51:23.466Z,33.40
2018-10-17T21:53:51.994Z,35.97
2018-10-17T21:56:20.511Z,32.50
2018-10-17T21:58:49.019Z,33.70
2018-10-17T22:01:17.536Z,37.10
2018-10-17T22:03:46.038Z,34.60
2018-10-17T22:06:14.538Z,33.10
2018-10-17T22:08:43.920Z,34.70
2018-10-17T22:11:12.416Z,35.60
2018-10-17T22:13:41.721Z,35.40
2018-10-17T22:16:10.246Z,38.40
2018-10-17T22:18:38.868Z,34.47
2018-10-17T22:21:07.672Z,35.73
2018-10-17T22:23:36.176Z,36.33
2018-10-17T22:26:04.716Z,35.50
2018-10-17T22:28:33.221Z,37.37
2018-10-17T22:31:01.769Z,37.10
2018-10-17T22:33:30.269Z,35.77
2018-10-17T22:35:58.774Z,35.30
2018-10-17T22:38:27.317Z,36.27
2018-10-17T22:40:55.856Z,35.47
2018-10-17T22:43:24.343Z,38.70
2018-10-17T22:45:52.834Z,35.93
2018-10-17T22:48:21.335Z,37.50
2018-10-17T22:50:49.840Z,37.10
2018-10-17T22:53:18.343Z,36.00
2018-10-17T22:55:46.843Z,34.87
2018-10-17T22:58:27.135Z,34.83
2018-10-17T23:00:55.632Z,36.37
2018-10-17T23:03:24.155Z,35.90
2018-10-17T23:05:52.654Z,35.90
2018-10-17T23:08:21.155Z,37.40
2018-10-17T23:10:49.710Z,37.10
2018-10-17T23:13:18.242Z,35.73
2018-10-17T23:15:46.758Z,37.97
2018-10-17T23:18:15.266Z,36.27
2018-10-17T23:20:43.754Z,35.93
2018-10-17T23:23:12.243Z,35.47
2018-10-17T23:25:40.763Z,36.70
2018-10-17T23:28:09.262Z,35.90
2018-10-17T23:30:37.778Z,35.40
2018-10-17T23:33:06.280Z,35.20
2018-10-17T23:35:34.786Z,35.90
2018-10-17T23:38:03.348Z,38.33
2018-10-17T23:40:31.882Z,38.73
2018-10-17T23:43:00.382Z,37.03
2018-10-17T23:45:28.887Z,35.97
2018-10-17T23:47:57.430Z,36.13
2018-10-17T23:50:25.983Z,38.60
2018-10-17T23:52:54.482Z,37.27
2018-10-17T23:55:22.981Z,36.30
2018-10-17T23:57:51.494Z,36.13
